createdAt,value
2022-12-03T00:00:46.542Z,49.17
2022-12-03T00:03:20.810Z,45.60
2022-12-03T00:06:05.271Z,47.67
2022-12-03T00:08:35.342Z,43.47
2022-12-03T00:11:02.686Z,49.93
2022-12-03T00:13:29.496Z,48.77
2022-12-03T00:15:56.390Z,49.27
2022-12-03T00:18:23.237Z,47.77
2022-12-03T00:20:50.050Z,45.03
2022-12-03T00:23:16.809Z,44.87
2022-12-03T00:25:43.622Z,46.13
2022-12-03T00:28:10.458Z,49.63
2022-12-03T00:30:37.258Z,50.43
2022-12-03T00:33:04.504Z,46.13
2022-12-03T00:35:31.317Z,46.03
2022-12-03T00:37:58.065Z,43.33
2022-12-03T00:40:24.840Z,48.40
2022-12-03T00:42:51.588Z,48.10
2022-12-03T00:45:18.442Z,45.60
2022-12-03T00:47:45.202Z,44.83
2022-12-03T00:50:12.384Z,43.33
2022-12-03T00:52:39.165Z,41.70
2022-12-03T00:55:06.664Z,44.47
2022-12-03T00:57:33.443Z,38.60
2022-12-03T01:00:00.185Z,45.67
2022-12-03T01:02:27.022Z,43.40
2022-12-03T01:04:54.064Z,44.40
2022-12-03T01:07:21.124Z,37.93
2022-12-03T01:09:47.966Z,42.33
2022-12-03T01:12:14.795Z,41.87
2022-12-03T01:14:41.572Z,42.90
2022-12-03T01:17:08.331Z,43.57
2022-12-03T01:19:35.861Z,37.97
2022-12-03T01:22:02.716Z,41.37
2022-12-03T01:24:29.842Z,46.10
2022-12-03T01:26:57.617Z,41.37
2022-12-03T01:29:24.779Z,45.27
2022-12-03T01:32:10.117Z,44.70
2022-12-03T01:34:36.905Z,37.13
2022-12-03T01:37:03.859Z,44.50
2022-12-03T01:39:30.744Z,40.97
2022-12-03T01:41:58.879Z,42.73
2022-12-03T01:44:34.602Z,42.27
2022-12-03T01:47:07.141Z,44.10
2022-12-03T01:49:41.955Z,45.00
2022-12-03T01:52:14.136Z,42.87
2022-12-03T01:54:45.970Z,45.13
2022-12-03T01:57:24.636Z,41.97
2022-12-03T01:59:52.518Z,46.37
2022-12-03T02:02:27.136Z,38.87
2022-12-03T02:04:54.836Z,40.97
2022-12-03T02:07:28.490Z,40.60
2022-12-03T02:09:57.863Z,44.43
2022-12-03T02:12:31.472Z,41.70
2022-12-03T02:14:59.234Z,43.83
2022-12-03T02:17:27.827Z,42.40
2022-12-03T02:19:55.971Z,42.07
2022-12-03T02:22:25.818Z,42.50
2022-12-03T02:24:58.767Z,40.40
2022-12-03T02:27:27.122Z,40.77
2022-12-03T02:29:54.101Z,39.83
2022-12-03T02:32:23.507Z,43.53
2022-12-03T02:34:51.055Z,43.30
2022-12-03T02:37:23.930Z,40.70
2022-12-03T02:39:54.172Z,41.40
2022-12-03T02:42:36.534Z,41.57
2022-12-03T02:45:22.228Z,43.20
2022-12-03T02:47:59.352Z,39.53
2022-12-03T02:50:39.542Z,44.70
2022-12-03T02:53:09.969Z,40.90
2022-12-03T02:55:37.710Z,39.10
2022-12-03T02:58:05.513Z,40.00
2022-12-03T03:00:33.184Z,40.23
2022-12-03T03:03:01.510Z,41.73
2022-12-03T03:05:28.794Z,44.93
2022-12-03T03:07:58.330Z,39.40
2022-12-03T03:10:26.221Z,41.27
2022-12-03T03:12:54.889Z,43.10
2022-12-03T03:15:23.261Z,39.20
2022-12-03T03:17:50.671Z,42.03
2022-12-03T03:20:18.668Z,45.77
2022-12-03T03:22:45.453Z,41.87
2022-12-03T03:25:18.750Z,44.13
2022-12-03T03:27:46.106Z,39.83
2022-12-03T03:30:14.287Z,44.63
2022-12-03T03:32:42.595Z,47.63
2022-12-03T03:35:10.789Z,48.83
2022-12-03T03:37:38.261Z,44.70
2022-12-03T03:40:05.934Z,46.23
2022-12-03T03:42:32.942Z,42.40
2022-12-03T03:45:00.023Z,43.20
2022-12-03T03:47:27.024Z,42.63
2022-12-03T03:49:54.464Z,39.73
2022-12-03T03:52:21.462Z,42.93
2022-12-03T03:54:48.440Z,45.97
2022-12-03T03:57:15.856Z,40.33
2022-12-03T03:59:42.837Z,40.97
2022-12-03T04:02:24.638Z,40.20
2022-12-03T04:04:52.641Z,41.43
2022-12-03T04:07:19.867Z,42.40
2022-12-03T04:09:46.658Z,39.60
2022-12-03T04:12:31.940Z,37.70
2022-12-03T04:14:58.844Z,37.83
2022-12-03T04:17:25.796Z,42.77
2022-12-03T04:19:52.596Z,44.40
2022-12-03T04:22:37.790Z,44.43
2022-12-03T04:25:24.099Z,45.03
2022-12-03T04:28:09.306Z,43.97
2022-12-03T04:30:36.150Z,42.03
2022-12-03T04:33:21.805Z,40.33
2022-12-03T04:35:48.831Z,40.87
2022-12-03T04:38:16.627Z,37.80
2022-12-03T04:41:01.340Z,39.83
2022-12-03T04:43:28.824Z,37.43
2022-12-03T04:45:55.699Z,41.73
2022-12-03T04:48:22.553Z,35.53
2022-12-03T04:50:49.377Z,39.40
2022-12-03T04:53:16.275Z,39.53
2022-12-03T04:55:43.092Z,38.87
2022-12-03T04:58:10.427Z,40.00
2022-12-03T05:00:37.345Z,39.57
2022-12-03T05:03:04.269Z,41.77
2022-12-03T05:05:31.129Z,40.90
2022-12-03T05:07:57.978Z,39.50
2022-12-03T05:10:24.857Z,44.47
2022-12-03T05:12:51.726Z,40.67
2022-12-03T05:15:18.543Z,37.40
2022-12-03T05:17:45.343Z,35.87
2022-12-03T05:20:31.096Z,39.97
2022-12-03T05:22:57.919Z,35.07
2022-12-03T05:25:24.731Z,39.27
2022-12-03T05:27:51.544Z,41.77
2022-12-03T05:30:18.415Z,42.00
2022-12-03T05:32:45.204Z,37.03
2022-12-03T05:35:12.175Z,37.53
2022-12-03T05:37:38.979Z,36.77
2022-12-03T05:40:06.680Z,36.70
2022-12-03T05:42:52.036Z,37.03
2022-12-03T05:45:19.336Z,35.07
2022-12-03T05:47:46.217Z,37.37
2022-12-03T05:50:13.086Z,36.60
2022-12-03T05:52:42.859Z,37.20
2022-12-03T05:55:11.800Z,36.27
2022-12-03T05:57:38.891Z,39.10
2022-12-03T06:00:09.321Z,39.67
2022-12-03T06:02:36.244Z,41.00
2022-12-03T06:05:03.343Z,39.10
2022-12-03T06:07:30.218Z,39.50
2022-12-03T06:09:57.056Z,40.57
2022-12-03T06:12:23.866Z,38.43
2022-12-03T06:14:50.861Z,40.20
2022-12-03T06:17:17.768Z,38.90
2022-12-03T06:19:44.607Z,39.63
2022-12-03T06:22:11.424Z,40.33
2022-12-03T06:24:38.354Z,42.07
2022-12-03T06:27:07.046Z,40.83
2022-12-03T06:29:33.880Z,38.33
2022-12-03T06:32:00.705Z,41.40
2022-12-03T06:34:27.488Z,43.57
2022-12-03T06:36:54.342Z,41.83
2022-12-03T06:39:21.432Z,39.97
2022-12-03T06:41:48.291Z,41.50
2022-12-03T06:44:15.199Z,42.40
2022-12-03T06:46:42.051Z,42.07
2022-12-03T06:49:09.273Z,47.20
2022-12-03T06:51:36.583Z,46.53
2022-12-03T06:54:04.647Z,42.93
2022-12-03T06:56:36.758Z,38.60
2022-12-03T06:59:05.992Z,45.53
2022-12-03T07:01:32.939Z,40.23
2022-12-03T07:03:59.740Z,42.10
2022-12-03T07:06:26.611Z,46.50
2022-12-03T07:08:53.425Z,40.30
2022-12-03T07:11:34.849Z,39.73
2022-12-03T07:14:05.551Z,43.83
2022-12-03T07:16:47.466Z,40.07
2022-12-03T07:19:14.968Z,39.93
2022-12-03T07:21:42.068Z,41.80
2022-12-03T07:24:09.128Z,41.87
2022-12-03T07:26:36.091Z,41.03
2022-12-03T07:29:02.943Z,41.63
2022-12-03T07:31:29.918Z,46.87
2022-12-03T07:33:56.858Z,43.73
2022-12-03T07:36:23.695Z,41.50
2022-12-03T07:38:50.529Z,38.73
2022-12-03T07:41:17.483Z,40.13
2022-12-03T07:43:45.256Z,43.10
2022-12-03T07:46:12.631Z,42.33
2022-12-03T07:48:40.601Z,38.77
2022-12-03T07:51:08.217Z,41.73
2022-12-03T07:53:36.480Z,41.53
2022-12-03T07:56:04.875Z,40.77
2022-12-03T07:58:31.751Z,40.70
2022-12-03T08:00:58.769Z,42.13
2022-12-03T08:03:25.684Z,39.83
2022-12-03T08:05:52.666Z,42.73
2022-12-03T08:08:19.547Z,37.97
2022-12-03T08:10:46.441Z,34.43
2022-12-03T08:13:15.610Z,37.73
2022-12-03T08:15:42.706Z,35.73
2022-12-03T08:18:15.969Z,40.63
2022-12-03T08:20:44.565Z,39.67
2022-12-03T08:23:17.910Z,37.87
2022-12-03T08:25:45.708Z,38.50
2022-12-03T08:28:12.657Z,37.30
2022-12-03T08:30:40.351Z,36.13
2022-12-03T08:33:20.314Z,35.40
2022-12-03T08:35:50.959Z,36.07
2022-12-03T08:38:21.045Z,31.60
2022-12-03T08:40:51.077Z,37.07
2022-12-03T08:43:25.013Z,39.67
2022-12-03T08:45:57.102Z,38.93
2022-12-03T08:48:41.787Z,42.07
2022-12-03T08:51:23.959Z,38.30
2022-12-03T08:53:59.683Z,38.70
2022-12-03T08:56:30.243Z,36.20
2022-12-03T08:59:27.722Z,35.10
2022-12-03T09:01:55.180Z,35.77
2022-12-03T09:04:22.007Z,35.07
2022-12-03T09:06:49.498Z,41.00
2022-12-03T09:09:16.725Z,39.73
2022-12-03T09:11:44.313Z,37.17
2022-12-03T09:14:18.282Z,33.10
2022-12-03T09:16:50.632Z,31.87
2022-12-03T09:19:17.535Z,32.23
2022-12-03T09:21:48.646Z,33.70
2022-12-03T09:24:15.505Z,31.93
2022-12-03T09:26:42.415Z,34.40
2022-12-03T09:29:12.459Z,32.53
2022-12-03T09:31:40.421Z,32.47
2022-12-03T09:34:07.866Z,34.07
2022-12-03T09:36:34.746Z,33.03
2022-12-03T09:39:01.578Z,31.80
2022-12-03T09:41:28.661Z,33.07
2022-12-03T09:44:05.189Z,32.63
2022-12-03T09:46:34.966Z,30.13
2022-12-03T09:49:02.852Z,37.93
2022-12-03T09:51:33.784Z,32.87
2022-12-03T09:54:06.502Z,31.40
2022-12-03T09:56:37.042Z,31.70
2022-12-03T09:59:12.652Z,30.40
2022-12-03T10:01:39.496Z,27.70
2022-12-03T10:04:06.987Z,32.50
2022-12-03T10:06:33.958Z,29.07
2022-12-03T10:09:01.619Z,29.43
2022-12-03T10:11:29.959Z,27.63
2022-12-03T10:13:58.537Z,29.60
2022-12-03T10:16:26.421Z,35.57
2022-12-03T10:18:55.969Z,36.10
2022-12-03T10:21:39.359Z,32.07
2022-12-03T10:24:25.768Z,32.60
2022-12-03T10:26:54.925Z,31.03
2022-12-03T10:29:34.101Z,32.07
2022-12-03T10:32:06.297Z,32.73
2022-12-03T10:34:35.480Z,31.67
2022-12-03T10:37:14.421Z,29.77
2022-12-03T10:39:55.996Z,29.50
2022-12-03T10:42:24.875Z,26.90
2022-12-03T10:45:09.711Z,29.43
2022-12-03T10:47:36.883Z,28.67
2022-12-03T10:50:07.107Z,26.80
2022-12-03T10:52:33.945Z,26.00
2022-12-03T10:55:00.769Z,27.50
2022-12-03T10:57:27.572Z,26.53
2022-12-03T10:59:54.432Z,25.80
2022-12-03T11:02:30.522Z,29.97
2022-12-03T11:04:59.123Z,28.93
2022-12-03T11:07:26.337Z,25.47
2022-12-03T11:09:58.839Z,25.57
2022-12-03T11:12:29.126Z,24.40
2022-12-03T11:14:56.824Z,33.17
2022-12-03T11:17:47.553Z,25.43
2022-12-03T11:20:46.450Z,25.27
2022-12-03T11:23:13.273Z,26.23
2022-12-03T11:25:50.462Z,21.20
2022-12-03T11:28:17.364Z,23.67
2022-12-03T11:30:56.882Z,26.03
2022-12-03T11:33:25.299Z,22.43
2022-12-03T11:36:04.458Z,25.17
2022-12-03T11:38:37.399Z,27.73
2022-12-03T11:41:16.220Z,29.23
2022-12-03T11:43:52.412Z,38.37
2022-12-03T11:46:25.341Z,35.83
2022-12-03T11:48:54.319Z,32.17
2022-12-03T11:51:23.414Z,31.03
2022-12-03T11:53:52.470Z,29.10
2022-12-03T11:56:30.569Z,26.03
2022-12-03T11:59:02.826Z,24.97
2022-12-03T12:01:39.064Z,25.80
2022-12-03T12:04:07.760Z,23.70
2022-12-03T12:06:42.832Z,24.33
2022-12-03T12:09:10.496Z,23.80
2022-12-03T12:11:41.350Z,22.10
2022-12-03T12:14:13.020Z,18.73
2022-12-03T12:16:52.798Z,21.17
2022-12-03T12:19:39.944Z,20.10
2022-12-03T12:22:20.500Z,18.43
2022-12-03T12:24:51.632Z,20.60
2022-12-03T12:27:21.058Z,29.60
2022-12-03T12:29:54.299Z,26.90
2022-12-03T12:32:29.574Z,26.63
2022-12-03T12:35:20.507Z,20.07
2022-12-03T12:37:59.055Z,24.20
2022-12-03T12:40:32.353Z,22.03
2022-12-03T12:43:12.621Z,21.83
2022-12-03T12:45:42.896Z,22.03
2022-12-03T12:48:26.422Z,22.03
2022-12-03T12:51:15.235Z,18.43
2022-12-03T12:53:49.669Z,15.97
2022-12-03T12:56:19.556Z,15.87
2022-12-03T12:58:46.386Z,16.03
2022-12-03T13:01:22.187Z,14.97
2022-12-03T13:03:51.854Z,14.53
2022-12-03T13:06:21.313Z,13.57
2022-12-03T13:08:49.798Z,13.90
2022-12-03T13:11:41.468Z,13.97
2022-12-03T13:14:31.935Z,16.13
2022-12-03T13:17:01.439Z,13.97
2022-12-03T13:19:30.496Z,14.77
2022-12-03T13:22:02.120Z,14.10
2022-12-03T13:24:35.905Z,12.70
2022-12-03T13:27:05.699Z,12.63
2022-12-03T13:29:32.546Z,14.37
2022-12-03T13:32:02.606Z,15.33
2022-12-03T13:34:33.609Z,13.40
2022-12-03T13:37:01.875Z,14.70
2022-12-03T13:39:32.490Z,13.37
2022-12-03T13:42:26.711Z,12.33
2022-12-03T13:44:54.329Z,14.27
2022-12-03T13:47:22.875Z,14.70
2022-12-03T13:49:55.353Z,15.40
2022-12-03T13:52:25.109Z,15.83
2022-12-03T13:54:56.651Z,14.93
2022-12-03T13:57:23.599Z,14.70
2022-12-03T13:59:50.494Z,14.83
2022-12-03T14:02:17.413Z,14.33
2022-12-03T14:04:44.261Z,15.30
2022-12-03T14:07:11.190Z,19.53
2022-12-03T14:09:37.973Z,15.53
2022-12-03T14:12:23.208Z,16.73
2022-12-03T14:14:49.970Z,15.43
2022-12-03T14:17:17.022Z,15.23
2022-12-03T14:19:43.970Z,13.70
2022-12-03T14:22:11.521Z,13.30
2022-12-03T14:24:42.717Z,11.33
2022-12-03T14:27:09.532Z,11.87
2022-12-03T14:29:36.479Z,13.00
2022-12-03T14:32:03.348Z,22.57
2022-12-03T14:34:30.320Z,22.73
2022-12-03T14:36:57.503Z,15.77
2022-12-03T14:39:24.274Z,13.53
2022-12-03T14:42:09.556Z,13.73
2022-12-03T14:44:36.395Z,13.50
2022-12-03T14:47:03.595Z,14.73
2022-12-03T14:49:30.587Z,14.53
2022-12-03T14:51:57.860Z,14.23
2022-12-03T14:54:24.773Z,13.47
2022-12-03T14:56:51.685Z,14.47
2022-12-03T14:59:22.991Z,13.57
2022-12-03T15:01:53.351Z,13.43
2022-12-03T15:04:20.384Z,13.13
2022-12-03T15:06:47.292Z,11.43
2022-12-03T15:09:14.159Z,12.03
2022-12-03T15:11:45.923Z,10.37
2022-12-03T15:14:13.388Z,12.47
2022-12-03T15:16:40.300Z,9.63
2022-12-03T15:19:07.243Z,10.03
2022-12-03T15:21:35.059Z,11.10
2022-12-03T15:24:02.597Z,14.80
2022-12-03T15:26:30.032Z,14.97
2022-12-03T15:28:57.788Z,13.43
2022-12-03T15:31:24.872Z,12.00
2022-12-03T15:33:51.762Z,12.73
2022-12-03T15:36:18.646Z,10.93
2022-12-03T15:38:45.533Z,12.20
2022-12-03T15:41:21.745Z,11.00
2022-12-03T15:43:49.041Z,11.47
2022-12-03T15:46:16.219Z,12.63
2022-12-03T15:48:43.098Z,12.30
2022-12-03T15:51:10.319Z,11.63
2022-12-03T15:53:37.211Z,12.00
2022-12-03T15:56:04.307Z,15.43
2022-12-03T15:58:31.250Z,11.53
2022-12-03T16:00:59.411Z,12.00
2022-12-03T16:03:26.400Z,12.10
2022-12-03T16:05:53.258Z,12.73
2022-12-03T16:08:20.136Z,11.00
2022-12-03T16:10:47.024Z,12.23
2022-12-03T16:13:13.860Z,12.57
2022-12-03T16:15:40.799Z,13.67
2022-12-03T16:18:07.758Z,13.23
2022-12-03T16:20:34.596Z,17.60
2022-12-03T16:23:01.661Z,20.07
2022-12-03T16:25:39.524Z,16.83
2022-12-03T16:28:06.736Z,13.47
2022-12-03T16:30:33.678Z,16.97
2022-12-03T16:33:00.570Z,16.13
2022-12-03T16:35:27.543Z,11.30
2022-12-03T16:37:54.421Z,12.67
2022-12-03T16:40:21.462Z,13.40
2022-12-03T16:42:48.354Z,11.40
2022-12-03T16:45:34.622Z,13.47
2022-12-03T16:48:02.391Z,12.10
2022-12-03T16:50:30.441Z,10.90
2022-12-03T16:52:58.044Z,13.03
2022-12-03T16:55:25.369Z,12.27
2022-12-03T16:57:52.237Z,10.87
2022-12-03T17:00:21.803Z,12.03
2022-12-03T17:02:48.831Z,12.63
2022-12-03T17:05:15.786Z,14.43
2022-12-03T17:07:42.715Z,10.17
2022-12-03T17:10:10.136Z,11.83
2022-12-03T17:13:01.201Z,13.23
2022-12-03T17:15:23.801Z,12.27
2022-12-03T17:17:50.633Z,11.87
2022-12-03T17:20:18.089Z,12.23
2022-12-03T17:22:45.039Z,15.37
2022-12-03T17:25:12.576Z,14.10
2022-12-03T17:27:45.116Z,11.53
2022-12-03T17:30:13.330Z,11.43
2022-12-03T17:32:41.443Z,12.17
2022-12-03T17:35:09.305Z,11.17
2022-12-03T17:37:37.040Z,12.03
2022-12-03T17:40:08.421Z,12.50
2022-12-03T17:42:35.430Z,12.03
2022-12-03T17:45:02.394Z,12.43
2022-12-03T17:47:29.375Z,14.70
2022-12-03T17:49:56.768Z,16.40
2022-12-03T17:52:24.136Z,12.20
2022-12-03T17:57:38.065Z,11.73
2022-12-03T18:00:06.199Z,12.50
2022-12-03T18:02:33.201Z,11.70
2022-12-03T18:05:00.122Z,12.20
2022-12-03T18:07:27.074Z,12.40
2022-12-03T18:09:54.212Z,13.27
2022-12-03T18:12:21.335Z,14.00
2022-12-03T18:14:48.200Z,14.73
2022-12-03T18:17:15.175Z,11.30
2022-12-03T18:19:42.136Z,34.87
2022-12-03T18:22:13.339Z,14.20
2022-12-03T18:24:40.906Z,12.33
2022-12-03T18:27:08.397Z,14.20
2022-12-03T18:29:35.448Z,13.37
2022-12-03T18:32:02.553Z,12.90
2022-12-03T18:34:29.397Z,13.77
2022-12-03T18:36:56.260Z,13.47
2022-12-03T18:39:31.539Z,14.10
2022-12-03T18:41:58.382Z,12.83
2022-12-03T18:44:26.113Z,14.80
2022-12-03T18:46:54.536Z,15.10
2022-12-03T18:49:22.271Z,18.73
2022-12-03T18:51:53.301Z,18.20
2022-12-03T18:54:24.371Z,13.73
2022-12-03T18:56:51.231Z,14.90
2022-12-03T18:59:18.004Z,26.67
2022-12-03T19:01:45.281Z,23.80
2022-12-03T19:04:12.405Z,17.83
2022-12-03T19:06:39.336Z,17.50
2022-12-03T19:09:06.293Z,15.13
2022-12-03T19:11:34.100Z,17.17
2022-12-03T19:14:02.907Z,15.70
2022-12-03T19:16:29.920Z,14.50
2022-12-03T19:18:57.289Z,16.37
2022-12-03T19:21:25.196Z,15.20
2022-12-03T19:24:22.664Z,15.80
2022-12-03T19:26:40.211Z,17.50
2022-12-03T19:29:07.037Z,17.10
2022-12-03T19:31:33.932Z,17.90
2022-12-03T19:34:00.770Z,18.27
2022-12-03T19:36:30.055Z,16.57
2022-12-03T19:38:59.010Z,20.20
2022-12-03T19:41:28.103Z,20.40
2022-12-03T19:43:56.238Z,23.57
2022-12-03T19:46:25.496Z,20.93
2022-12-03T19:48:53.630Z,20.23
2022-12-03T19:51:34.301Z,17.17
2022-12-03T19:54:06.723Z,17.03
2022-12-03T19:56:34.357Z,16.53
2022-12-03T19:59:01.142Z,14.73
2022-12-03T20:01:30.833Z,16.63
2022-12-03T20:03:59.938Z,16.13
2022-12-03T20:06:32.692Z,15.90
2022-12-03T20:09:06.941Z,16.33
2022-12-03T20:11:34.954Z,19.43
2022-12-03T20:14:07.243Z,18.77
2022-12-03T20:16:34.907Z,16.07
2022-12-03T20:19:05.092Z,17.37
2022-12-03T20:21:34.390Z,17.87
2022-12-03T20:24:01.470Z,16.07
2022-12-03T20:26:29.375Z,16.90
2022-12-03T20:28:57.007Z,18.00
2022-12-03T20:31:26.593Z,16.77
2022-12-03T20:33:56.470Z,16.43
2022-12-03T20:36:24.156Z,17.40
2022-12-03T20:39:00.483Z,16.37
2022-12-03T20:41:28.085Z,19.17
2022-12-03T20:43:55.265Z,24.93
2022-12-03T20:46:25.818Z,17.90
2022-12-03T20:48:56.445Z,17.83
2022-12-03T20:51:26.670Z,17.50
2022-12-03T20:53:54.019Z,18.20
2022-12-03T20:56:23.847Z,18.13
2022-12-03T20:58:51.184Z,15.37
2022-12-03T21:01:21.186Z,17.10
2022-12-03T21:03:49.521Z,17.93
2022-12-03T21:06:17.533Z,15.67
2022-12-03T21:08:45.239Z,17.03
2022-12-03T21:11:14.846Z,16.40
2022-12-03T21:13:43.807Z,14.90
2022-12-03T21:16:13.809Z,15.80
2022-12-03T21:18:41.641Z,17.23
2022-12-03T21:21:10.721Z,16.50
2022-12-03T21:23:37.888Z,17.80
2022-12-03T21:26:10.636Z,18.07
2022-12-03T21:28:43.377Z,16.90
2022-12-03T21:31:19.352Z,16.93
2022-12-03T21:33:46.722Z,18.93
2022-12-03T21:36:16.106Z,18.07
2022-12-03T21:38:44.549Z,17.47
2022-12-03T21:41:12.466Z,16.90
2022-12-03T21:43:39.347Z,16.20
2022-12-03T21:47:09.616Z,16.10
2022-12-03T21:49:00.052Z,15.97
2022-12-03T21:51:26.988Z,18.97
2022-12-03T21:53:54.408Z,18.53
2022-12-03T21:56:21.624Z,17.27
2022-12-03T21:58:48.698Z,16.63
2022-12-03T22:01:26.058Z,16.83
2022-12-03T22:03:53.404Z,15.90
2022-12-03T22:06:21.434Z,20.80
2022-12-03T22:08:49.595Z,19.23
2022-12-03T22:11:19.916Z,18.90
2022-12-03T22:13:49.747Z,18.13
2022-12-03T22:16:20.235Z,18.63
2022-12-03T22:18:48.900Z,19.13
2022-12-03T22:21:20.282Z,17.47
2022-12-03T22:23:48.817Z,19.30
2022-12-03T22:26:18.651Z,16.10
2022-12-03T22:28:48.858Z,18.33
2022-12-03T22:31:21.791Z,18.70
2022-12-03T22:33:49.887Z,17.33
2022-12-03T22:36:21.888Z,18.27
2022-12-03T22:38:54.554Z,15.80
2022-12-03T22:41:22.264Z,17.00
2022-12-03T22:43:50.506Z,17.30
2022-12-03T22:46:17.874Z,19.87
2022-12-03T22:48:46.836Z,15.47
2022-12-03T22:51:22.236Z,16.60
2022-12-03T22:53:53.770Z,15.87
2022-12-03T22:56:22.358Z,16.13
2022-12-03T22:58:49.930Z,19.17
2022-12-03T23:01:38.101Z,19.20
2022-12-03T23:04:05.857Z,20.53
2022-12-03T23:06:35.091Z,16.53
2022-12-03T23:09:03.215Z,17.00
2022-12-03T23:11:30.239Z,18.77
2022-12-03T23:13:58.974Z,17.97
2022-12-03T23:16:29.548Z,17.17
2022-12-03T23:18:59.040Z,16.90
2022-12-03T23:21:30.269Z,17.47
2022-12-03T23:23:58.666Z,19.70
2022-12-03T23:26:25.634Z,18.03
2022-12-03T23:28:58.590Z,16.53
2022-12-03T23:31:28.448Z,19.07
2022-12-03T23:33:56.264Z,15.97
2022-12-03T23:36:24.716Z,18.57
2022-12-03T23:38:51.790Z,17.87
2022-12-03T23:41:20.739Z,17.57
2022-12-03T23:43:47.950Z,18.97
2022-12-03T23:46:23.216Z,16.83
2022-12-03T23:48:51.228Z,19.27
2022-12-03T23:51:20.901Z,18.57
2022-12-03T23:53:48.367Z,17.47
2022-12-03T23:56:24.040Z,18.43
2022-12-03T23:58:51.570Z,16.77
